Time;durP1;ratioP1;P1;durP2;ratioP2;P2;SDS_P1;SDS_P2;PMS_P1;PMS_P2;Temp;Humidity;BMP_temperature;BMP_pressure;BME280_temperature;BME280_humidity;BME280_pressure;Samples;Min_cycle;Max_cycle;Signal;HPM_P1;HPM_P2
2021/12/24 00:01:56;;;;;;;48.30;23.33;;;;;;;-141.50;100.00;63355.56;4912444;29;20060;-79
2021/12/24 00:04:24;;;;;;;57.72;25.17;;;;;;;-141.50;100.00;63355.56;4900024;29;20184;-78
2021/12/24 00:06:52;;;;;;;51.95;23.15;;;;;;;-141.50;100.00;63355.56;4916209;29;20088;-78
2021/12/24 00:09:25;;;;;;;53.38;25.65;;;;;;;-141.50;100.00;63355.56;4913156;29;20056;-78
2021/12/24 00:11:57;;;;;;;57.28;25.77;;;;;;;-141.50;100.00;63355.56;4910183;29;20167;-78
2021/12/24 00:14:25;;;;;;;55.17;24.05;;;;;;;-141.50;100.00;63355.56;4893680;29;20089;-78
2021/12/24 00:16:55;;;;;;;60.13;25.98;;;;;;;-141.50;100.00;63355.56;4910437;29;20091;-78
2021/12/24 00:19:59;;;;;;;59.05;25.33;;;;;;;-141.50;100.00;63355.56;4910484;29;20095;-79
2021/12/24 00:35:40;;;;;;;53.60;23.73;;;;;;;-141.50;100.00;63355.56;4896008;29;20056;-78
2021/12/24 00:38:10;;;;;;;54.13;24.77;;;;;;;-141.50;100.00;63355.56;4895057;29;20052;-78
2021/12/24 00:40:41;;;;;;;51.72;23.33;;;;;;;-141.50;100.00;63355.56;4877231;29;20108;-79
2021/12/24 00:43:08;;;;;;;51.33;22.45;;;;;;;-141.50;100.00;63355.56;4896628;29;20120;-79
2021/12/24 00:45:39;;;;;;;47.08;21.15;;;;;;;-141.50;100.00;63355.56;4897189;29;20140;-79
2021/12/24 00:48:07;;;;;;;47.28;20.95;;;;;;;-141.50;100.00;63355.56;4896243;29;20065;-78
2021/12/24 00:50:49;;;;;;;43.60;19.58;;;;;;;-141.50;100.00;63355.56;4894383;29;20111;-78
2021/12/24 00:55:58;;;;;;;44.13;20.45;;;;;;;-141.50;100.00;63355.56;4895250;29;20048;-78
2021/12/24 00:58:25;;;;;;;47.70;21.35;;;;;;;-141.50;100.00;63355.56;4896337;29;20100;-77
2021/12/24 01:00:52;;;;;;;39.10;18.88;;;;;;;-141.50;100.00;63355.56;4896448;29;20130;-79
2021/12/24 01:03:19;;;;;;;41.53;19.83;;;;;;;-141.50;100.00;63355.56;4894445;29;20497;-79
2021/12/24 01:05:45;;;;;;;39.90;19.05;;;;;;;-141.50;100.00;63355.56;4879632;29;20152;-80
2021/12/24 01:08:14;;;;;;;43.30;19.77;;;;;;;-141.50;100.00;63355.56;4898166;29;20140;-79
2021/12/24 01:10:51;;;;;;;42.00;19.40;;;;;;;-141.50;100.00;63355.56;4895934;29;20052;-78
2021/12/24 01:13:18;;;;;;;38.88;17.70;;;;;;;-141.50;100.00;63355.56;4894367;29;20139;-79
2021/12/24 01:16:02;;;;;;;39.08;18.55;;;;;;;-141.50;100.00;63355.56;4896018;29;20060;-77
2021/12/24 01:18:46;;;;;;;38.75;18.30;;;;;;;-141.50;100.00;63355.56;4894377;29;20056;-78
2021/12/24 01:23:55;;;;;;;37.20;18.60;;;;;;;-141.50;100.00;63355.56;4895740;29;20052;-79
2021/12/24 01:42:45;;;;;;;;;;;;;;;;;;;;;
2021/12/24 01:45:15;;;;;;;28.60;15.35;;;;;;;-141.50;100.00;63355.56;4896020;29;20088;-80
2021/12/24 01:47:42;;;;;;;30.45;14.90;;;;;;;-141.50;100.00;63355.56;4895446;29;20052;-79
2021/12/24 01:50:10;;;;;;;27.52;13.73;;;;;;;-141.50;100.00;63355.56;4894346;29;20131;-80
2021/12/24 01:52:38;;;;;;;26.50;13.18;;;;;;;-141.50;100.00;63355.56;4894034;29;20107;-80
2021/12/24 01:55:06;;;;;;;23.55;12.95;;;;;;;-141.50;100.00;63355.56;4894986;29;20123;-80
2021/12/24 01:57:32;;;;;;;29.52;15.30;;;;;;;-141.50;100.00;63355.56;4896131;29;20049;-80
2021/12/24 01:59:59;;;;;;;27.52;12.63;;;;;;;-141.50;100.00;63355.56;4896736;29;20089;-80
2021/12/24 02:02:27;;;;;;;28.00;13.55;;;;;;;-141.50;100.00;63355.56;4896221;29;20090;-80
2021/12/24 02:04:54;;;;;;;21.55;12.07;;;;;;;-141.50;100.00;63355.56;4893660;29;20057;-79
2021/12/24 02:07:20;;;;;;;18.85;11.23;;;;;;;-141.50;100.00;63355.56;4893485;29;20534;-78
2021/12/24 02:09:47;;;;;;;18.60;11.25;;;;;;;-141.50;100.00;63355.56;4892944;29;20052;-78
2021/12/24 02:12:15;;;;;;;21.52;11.48;;;;;;;-141.50;100.00;63355.56;4895822;29;20343;-80
2021/12/24 02:14:46;;;;;;;19.08;11.73;;;;;;;-141.50;100.00;63355.56;4900318;29;20057;-80
2021/12/24 02:28:21;;;;;;;13.10;8.05;;;;;;;-141.50;100.00;63355.56;4894550;29;20052;-80
2021/12/24 02:30:48;;;;;;;13.77;7.95;;;;;;;-141.50;100.00;63355.56;4896535;29;20139;-79
2021/12/24 02:33:15;;;;;;;14.52;8.48;;;;;;;-141.50;100.00;63355.56;4895907;29;20067;-79
2021/12/24 02:35:41;;;;;;;14.23;8.43;;;;;;;-141.50;100.00;63355.56;4894699;29;20111;-79
2021/12/24 02:38:08;;;;;;;13.63;8.05;;;;;;;-141.50;100.00;63355.56;4894865;29;20482;-78
2021/12/24 02:40:35;;;;;;;14.00;7.80;;;;;;;-141.50;100.00;63355.56;4896889;29;20080;-78
2021/12/24 02:43:02;;;;;;;11.88;7.30;;;;;;;-141.50;100.00;63355.56;4910925;29;20053;-77
2021/12/24 02:45:33;;;;;;;14.25;7.65;;;;;;;-141.50;100.00;63355.56;4912457;29;20060;-78
2021/12/24 02:56:04;;;;;;;9.30;5.82;;;;;;;-141.50;100.00;63355.56;4916479;29;20044;-80
2021/12/24 02:58:46;;;;;;;9.85;5.30;;;;;;;-141.50;100.00;63355.56;4917874;29;20053;-79
2021/12/24 03:01:15;;;;;;;7.70;5.28;;;;;;;-141.50;100.00;63355.56;4901003;29;20045;-79
2021/12/24 03:03:48;;;;;;;8.65;5.18;;;;;;;-141.50;100.00;63355.56;4913935;29;20512;-80
2021/12/24 03:06:15;;;;;;;6.97;4.88;;;;;;;-141.50;100.00;63355.56;4900932;29;20052;-81
2021/12/24 03:08:42;;;;;;;9.00;5.22;;;;;;;-141.50;100.00;63355.56;4878754;29;20131;-80
2021/12/24 03:11:08;;;;;;;7.05;4.78;;;;;;;-141.50;100.00;63355.56;4893871;29;20088;-80
2021/12/24 03:13:36;;;;;;;8.63;4.70;;;;;;;-141.50;100.00;63355.56;4893755;29;20052;-80
2021/12/24 03:16:04;;;;;;;8.63;5.15;;;;;;;-141.50;100.00;63355.56;4897144;29;20124;-80
2021/12/24 03:18:34;;;;;;;6.18;4.22;;;;;;;-141.50;100.00;63355.56;4896801;29;20061;-80
2021/12/24 03:26:06;;;;;;;4.82;3.63;;;;;;;-141.50;100.00;63355.56;4896560;29;20088;-81
2021/12/24 03:28:32;;;;;;;5.03;3.47;;;;;;;-141.50;100.00;63355.56;4895404;29;20116;-79
2021/12/24 03:31:00;;;;;;;7.25;4.03;;;;;;;-141.50;100.00;63355.56;4898004;29;20375;-79
2021/12/24 03:33:27;;;;;;;6.75;4.82;;;;;;;-141.50;100.00;63355.56;4897719;29;20056;-79
2021/12/24 03:35:53;;;;;;;6.68;4.80;;;;;;;-141.50;100.00;63355.56;4896103;29;20127;-80
2021/12/24 03:38:22;;;;;;;6.35;4.82;;;;;;;-141.50;100.00;63355.56;4897544;29;20044;-80
2021/12/24 03:40:49;;;;;;;8.48;5.70;;;;;;;-141.50;100.00;63355.56;4893936;29;20528;-80
2021/12/24 03:43:15;;;;;;;7.68;5.82;;;;;;;-141.50;100.00;63355.56;4880932;29;20092;-79
2021/12/24 03:46:19;;;;;;;9.20;5.78;;;;;;;-141.50;100.00;63355.56;4896494;29;20056;-80
2021/12/24 03:51:47;;;;;;;9.35;5.90;;;;;;;-141.50;100.00;63355.56;4893056;29;20537;-80
2021/12/24 03:56:59;;;;;;;7.73;4.47;;;;;;;-141.50;100.00;63355.56;4895994;29;20573;-80
2021/12/24 03:59:25;;;;;;;8.15;5.40;;;;;;;-141.50;100.00;63355.56;4880863;29;20056;-80
2021/12/24 04:01:52;;;;;;;10.90;5.43;;;;;;;-141.50;100.00;63355.56;4880120;29;20135;-79
2021/12/24 04:04:18;;;;;;;7.30;5.00;;;;;;;-141.50;100.00;63355.56;4896727;29;20112;-79
2021/12/24 04:06:47;;;;;;;8.68;5.68;;;;;;;-141.50;100.00;63355.56;4894648;29;20620;-79
2021/12/24 04:09:14;;;;;;;9.45;6.18;;;;;;;-141.50;100.00;63355.56;4895733;29;20068;-78
2021/12/24 04:11:41;;;;;;;10.88;6.15;;;;;;;-141.50;100.00;63355.56;4895927;29;20187;-79
2021/12/24 04:14:07;;;;;;;9.10;6.10;;;;;;;-141.50;100.00;63355.56;4895066;29;20060;-78
2021/12/24 04:16:35;;;;;;;9.93;6.03;;;;;;;-141.50;100.00;63355.56;4896620;29;20091;-79
2021/12/24 04:19:34;;;;;;;10.30;6.05;;;;;;;-141.50;100.00;63355.56;4895641;29;20056;-79
2021/12/24 04:24:56;;;;;;;9.50;6.45;;;;;;;-141.50;100.00;63355.56;4895806;29;20077;-78
2021/12/24 04:27:26;;;;;;;10.68;6.32;;;;;;;-141.50;100.00;63355.56;4895844;29;20045;-79
2021/12/24 04:30:01;;;;;;;11.45;6.65;;;;;;;-141.50;100.00;63355.56;4896710;29;20111;-80
2021/12/24 04:32:39;;;;;;;11.88;6.45;;;;;;;-141.50;100.00;63355.56;4897726;29;20549;-81
2021/12/24 04:35:19;;;;;;;12.18;6.50;;;;;;;-141.50;100.00;63355.56;4896634;29;20394;-79
2021/12/24 04:38:08;;;;;;;11.85;6.60;;;;;;;-141.50;100.00;63355.56;4896798;29;20052;-80
2021/12/24 04:51:37;;;;;;;10.67;7.33;;;;;;;-141.50;100.00;63355.56;4895293;29;20120;-79
2021/12/24 05:02:44;;;;;;;13.57;7.53;;;;;;;-141.50;100.00;63355.56;4883479;29;20506;-79
2021/12/24 05:05:18;;;;;;;15.05;8.27;;;;;;;-141.50;100.00;63355.56;4896292;29;20136;-79
2021/12/24 05:10:21;;;;;;;15.73;9.50;;;;;;;-141.50;100.00;63355.56;4896192;29;20061;-79
2021/12/24 05:12:48;;;;;;;18.13;9.57;;;;;;;-141.50;100.00;63355.56;4896405;29;20489;-80
2021/12/24 05:15:15;;;;;;;16.20;9.70;;;;;;;-141.50;100.00;63355.56;4897259;29;20072;-79
2021/12/24 05:18:09;;;;;;;17.65;9.65;;;;;;;-141.50;100.00;63355.56;4897072;29;20144;-79
2021/12/24 05:23:21;;;;;;;15.95;9.25;;;;;;;-141.50;100.00;63355.56;4897314;29;20080;-78
2021/12/24 05:25:50;;;;;;;15.88;9.95;;;;;;;-141.50;100.00;63355.56;4895227;29;20056;-79
2021/12/24 05:28:18;;;;;;;18.40;9.88;;;;;;;-141.50;100.00;63355.56;4896105;29;20049;-79
2021/12/24 05:30:45;;;;;;;14.88;8.48;;;;;;;-141.50;100.00;63355.56;4896181;29;20151;-79
2021/12/24 05:33:14;;;;;;;14.50;8.85;;;;;;;-141.50;100.00;63355.56;4879271;29;20052;-80
2021/12/24 05:35:43;;;;;;;15.30;9.35;;;;;;;-141.50;100.00;63355.56;4896997;29;20053;-80
2021/12/24 05:38:14;;;;;;;14.60;8.98;;;;;;;-141.50;100.00;63355.56;4897136;29;20128;-78
2021/12/24 05:40:41;;;;;;;15.10;8.82;;;;;;;-141.50;100.00;63355.56;4879036;29;20534;-80
2021/12/24 05:43:07;;;;;;;15.68;10.02;;;;;;;-141.50;100.00;63355.56;4896894;29;20094;-79
2021/12/24 05:45:34;;;;;;;15.30;8.95;;;;;;;-141.50;100.00;63355.56;4897050;29;20115;-80
2021/12/24 05:48:01;;;;;;;14.70;8.82;;;;;;;-141.50;100.00;63355.56;4897020;29;20108;-80
2021/12/24 05:50:28;;;;;;;12.77;8.90;;;;;;;-141.50;100.00;63355.56;4895718;29;20154;-79
2021/12/24 05:52:54;;;;;;;14.68;9.13;;;;;;;-141.50;100.00;63355.56;4897366;29;20053;-79
2021/12/24 05:55:21;;;;;;;16.10;8.70;;;;;;;-141.50;100.00;63355.56;4894368;29;20075;-79
2021/12/24 05:57:48;;;;;;;14.38;8.85;;;;;;;-141.50;100.00;63355.56;4898463;29;20081;-80
2021/12/24 06:00:18;;;;;;;14.00;9.20;;;;;;;-141.50;100.00;63355.56;4896277;29;20852;-79
2021/12/24 06:02:45;;;;;;;13.20;8.48;;;;;;;-141.50;100.00;63355.56;4897756;29;20472;-78
2021/12/24 06:05:12;;;;;;;12.88;8.07;;;;;;;-141.50;100.00;63355.56;4898266;29;20059;-80
2021/12/24 06:07:38;;;;;;;13.10;8.27;;;;;;;-141.50;100.00;63355.56;4896959;29;20398;-79
2021/12/24 06:10:05;;;;;;;15.45;8.13;;;;;;;-141.50;100.00;63355.56;4894826;29;20084;-80
2021/12/24 06:12:32;;;;;;;13.23;8.73;;;;;;;-141.50;100.00;63355.56;4895325;29;20056;-80
2021/12/24 06:15:04;;;;;;;13.63;8.20;;;;;;;-141.50;100.00;63355.56;4879725;29;20076;-81
2021/12/24 06:17:30;;;;;;;12.82;8.52;;;;;;;-141.50;100.00;63355.56;4896897;29;20052;-80
2021/12/24 06:19:57;;;;;;;15.10;9.15;;;;;;;-141.50;100.00;63355.56;4895120;29;20099;-80
2021/12/24 06:22:24;;;;;;;12.68;8.35;;;;;;;-141.50;100.00;63355.56;4896899;29;20571;-79
2021/12/24 06:24:50;;;;;;;12.77;8.63;;;;;;;-141.50;100.00;63355.56;4896060;29;20490;-78
2021/12/24 06:27:17;;;;;;;14.40;8.98;;;;;;;-141.50;100.00;63355.56;4895358;29;20217;-79
2021/12/24 06:29:43;;;;;;;12.35;8.38;;;;;;;-141.50;100.00;63355.56;4894593;29;20080;-79
2021/12/24 06:32:10;;;;;;;15.25;8.77;;;;;;;-141.50;100.00;63355.56;4895724;29;20053;-80
2021/12/24 06:34:36;;;;;;;12.15;7.72;;;;;;;-141.50;100.00;63355.56;4896275;29;20056;-80
2021/12/24 06:37:03;;;;;;;12.23;8.23;;;;;;;-141.50;100.00;63355.56;4895584;29;20068;-79
2021/12/24 06:39:30;;;;;;;12.25;7.90;;;;;;;-141.50;100.00;63355.56;4895765;29;20053;-80
2021/12/24 06:41:57;;;;;;;12.43;8.05;;;;;;;-141.50;100.00;63355.56;4893990;29;20613;-80
2021/12/24 06:44:23;;;;;;;14.73;8.75;;;;;;;-141.50;100.00;63355.56;4896696;29;20481;-81
2021/12/24 06:46:50;;;;;;;13.63;8.10;;;;;;;-141.50;100.00;63355.56;4896009;29;20056;-80
2021/12/24 06:49:17;;;;;;;12.82;8.68;;;;;;;-141.50;100.00;63355.56;4896070;29;20509;-80
2021/12/24 06:51:43;;;;;;;13.65;8.10;;;;;;;-141.50;100.00;63355.56;4898935;29;20080;-80
2021/12/24 06:54:11;;;;;;;13.52;8.35;;;;;;;-141.50;100.00;63355.56;4890408;29;20414;-79
2021/12/24 06:56:42;;;;;;;12.82;8.32;;;;;;;-141.50;100.00;63355.56;4896369;29;20091;-78
2021/12/24 06:59:08;;;;;;;11.35;8.02;;;;;;;-141.50;100.00;63355.56;4880191;29;20044;-80
2021/12/24 07:01:35;;;;;;;14.05;8.52;;;;;;;-141.50;100.00;63355.56;4898142;29;20080;-79
2021/12/24 07:04:02;;;;;;;15.40;9.00;;;;;;;-141.50;100.00;63355.56;4898303;29;20044;-79
2021/12/24 07:06:29;;;;;;;14.75;8.85;;;;;;;-141.50;100.00;63355.56;4872715;29;20068;-80
2021/12/24 07:08:56;;;;;;;17.45;9.43;;;;;;;-141.50;100.00;63355.56;4896532;29;20053;-81
2021/12/24 07:11:24;;;;;;;16.13;9.30;;;;;;;-141.50;100.00;63355.56;4881746;29;20056;-81
2021/12/24 07:13:52;;;;;;;16.05;9.73;;;;;;;-141.50;100.00;63355.56;4899205;29;20108;-80
2021/12/24 07:16:18;;;;;;;15.52;9.52;;;;;;;-141.50;100.00;63355.56;4898154;29;20116;-80
2021/12/24 07:18:45;;;;;;;15.48;9.93;;;;;;;-141.50;100.00;63355.56;4900001;29;20052;-81
2021/12/24 07:21:11;;;;;;;17.83;9.90;;;;;;;-141.50;100.00;63355.56;4899839;29;20083;-80
2021/12/24 07:23:38;;;;;;;17.65;10.20;;;;;;;-141.50;100.00;63355.56;4920622;29;20076;-80
2021/12/24 07:26:04;;;;;;;20.00;9.27;;;;;;;-141.50;100.00;63355.56;4919903;29;20037;-80
2021/12/24 07:28:31;;;;;;;14.90;9.70;;;;;;;-141.50;100.00;63355.56;4903986;29;20051;-80
2021/12/24 07:30:57;;;;;;;15.07;8.98;;;;;;;-141.50;100.00;63355.56;4899828;29;20079;-80
2021/12/24 07:33:24;;;;;;;15.82;9.02;;;;;;;-141.50;100.00;63355.56;4899185;29;20076;-80
2021/12/24 07:35:51;;;;;;;15.95;9.15;;;;;;;-141.50;100.00;63355.56;4897912;29;20052;-79
2021/12/24 07:38:17;;;;;;;14.75;8.95;;;;;;;-141.50;100.00;63355.56;4882784;29;20138;-80
2021/12/24 07:40:46;;;;;;;13.85;8.48;;;;;;;-141.50;100.00;63355.56;4891814;29;20076;-79
2021/12/24 07:43:13;;;;;;;14.60;8.68;;;;;;;-141.50;100.00;63355.56;4895361;29;20052;-79
2021/12/24 07:45:41;;;;;;;13.50;7.95;;;;;;;-141.50;100.00;63355.56;4889768;29;20088;-79
2021/12/24 07:48:13;;;;;;;14.75;7.90;;;;;;;-141.50;100.00;63355.56;4896230;29;20192;-78
2021/12/24 07:53:15;;;;;;;11.02;6.85;;;;;;;-141.50;100.00;63355.56;4893716;29;20143;-79
2021/12/24 07:55:41;;;;;;;13.38;7.45;;;;;;;-141.50;100.00;63355.56;4875261;29;20584;-79
2021/12/24 07:58:09;;;;;;;13.88;7.05;;;;;;;-141.50;100.00;63355.56;4893944;29;20270;-77
2021/12/24 08:00:38;;;;;;;10.50;6.47;;;;;;;-141.50;100.00;63355.56;4895305;29;20079;-79
2021/12/24 08:03:05;;;;;;;11.20;6.40;;;;;;;-141.50;100.00;63355.56;4888384;29;20056;-78
2021/12/24 08:05:35;;;;;;;9.35;5.68;;;;;;;-141.50;100.00;63355.56;4881828;29;20121;-78
2021/12/24 08:08:02;;;;;;;13.52;5.80;;;;;;;-141.50;100.00;63355.56;4885005;29;20049;-80
2021/12/24 08:10:31;;;;;;;9.98;5.75;;;;;;;-141.50;100.00;63355.56;4892030;29;20056;-78
2021/12/24 08:12:57;;;;;;;9.60;5.15;;;;;;;-141.50;100.00;63355.56;4894779;29;20044;-78
2021/12/24 08:15:24;;;;;;;10.38;5.43;;;;;;;-141.50;100.00;63355.56;4891394;29;20082;-79
2021/12/24 08:17:51;;;;;;;9.57;5.10;;;;;;;-141.50;100.00;63355.56;4878759;29;20200;-79
2021/12/24 08:20:22;;;;;;;9.10;5.63;;;;;;;-141.50;100.00;63355.56;4884988;29;20445;-79
2021/12/24 08:22:50;;;;;;;8.75;5.13;;;;;;;-141.50;100.00;63355.56;4892240;29;20076;-81
2021/12/24 08:25:17;;;;;;;7.30;4.65;;;;;;;-141.50;100.00;63355.56;4882180;29;20402;-79
2021/12/24 08:27:44;;;;;;;7.22;4.50;;;;;;;-141.50;100.00;63355.56;4898076;29;20053;-78
2021/12/24 08:30:11;;;;;;;9.95;4.53;;;;;;;-141.50;100.00;63355.56;4897082;29;20080;-79
2021/12/24 08:32:40;;;;;;;6.40;4.25;;;;;;;-141.50;100.00;63355.56;4895806;29;20060;-79
2021/12/24 08:35:10;;;;;;;7.03;4.68;;;;;;;-141.50;100.00;63355.56;4898278;29;20111;-79
2021/12/24 08:37:38;;;;;;;7.30;4.25;;;;;;;-141.50;100.00;63355.56;4898170;29;20065;-79
2021/12/24 08:40:05;;;;;;;7.38;4.15;;;;;;;-141.50;100.00;63355.56;4879205;29;20063;-79
2021/12/24 08:42:31;;;;;;;7.07;4.78;;;;;;;-141.50;100.00;63355.56;4897897;29;20052;-79
2021/12/24 08:44:58;;;;;;;8.48;4.95;;;;;;;-141.50;100.00;63355.56;4903960;29;20541;-81
2021/12/24 08:47:24;;;;;;;11.20;5.15;;;;;;;-141.50;100.00;63355.56;4886055;29;20052;-80
2021/12/24 08:49:51;;;;;;;7.88;4.55;;;;;;;-141.50;100.00;63355.56;4897050;29;20075;-80
2021/12/24 08:52:17;;;;;;;9.95;5.13;;;;;;;-141.50;100.00;63355.56;4893399;29;20091;-79
2021/12/24 08:54:44;;;;;;;6.97;4.28;;;;;;;-141.50;100.00;63355.56;4895767;29;20064;-79
2021/12/24 08:57:11;;;;;;;10.52;4.72;;;;;;;-141.50;100.00;63355.56;4868736;29;20113;-79
2021/12/24 08:59:37;;;;;;;7.72;4.50;;;;;;;-141.50;100.00;63355.56;4903987;29;20044;-78
2021/12/24 09:02:04;;;;;;;7.88;5.15;;;;;;;-141.50;100.00;63355.56;4896282;29;20056;-79
2021/12/24 09:04:31;;;;;;;7.75;5.07;;;;;;;-141.50;100.00;63355.56;4885920;29;20048;-79
2021/12/24 09:06:58;;;;;;;12.20;5.53;;;;;;;-141.50;100.00;63355.56;4886382;29;20049;-80
2021/12/24 09:09:24;;;;;;;10.07;4.95;;;;;;;-141.50;100.00;63355.56;4885641;29;20081;-79
2021/12/24 09:11:51;;;;;;;7.38;4.93;;;;;;;-141.50;100.00;63355.56;4886956;29;20104;-80
2021/12/24 09:14:18;;;;;;;6.68;4.47;;;;;;;-141.50;100.00;63355.56;4881576;29;20105;-79
2021/12/24 09:16:47;;;;;;;8.38;4.38;;;;;;;-141.50;100.00;63355.56;4876213;29;20064;-78
2021/12/24 09:19:19;;;;;;;9.27;4.80;;;;;;;-141.50;100.00;63355.56;4876593;29;20049;-80
2021/12/24 09:21:46;;;;;;;9.73;4.05;;;;;;;-141.50;100.00;63355.56;4875531;29;20498;-78
2021/12/24 09:24:13;;;;;;;9.82;4.63;;;;;;;-141.50;100.00;63355.56;4860729;29;20053;-79
2021/12/24 09:26:40;;;;;;;8.43;4.88;;;;;;;-141.50;100.00;63355.56;4859630;29;20061;-78
2021/12/24 09:29:08;;;;;;;6.95;3.95;;;;;;;-141.50;100.00;63355.56;4876949;29;20129;-79
2021/12/24 09:31:35;;;;;;;7.97;4.20;;;;;;;-141.50;100.00;63355.56;4878151;29;20053;-79
2021/12/24 09:34:02;;;;;;;6.97;4.38;;;;;;;-141.50;100.00;63355.56;4862475;29;20144;-79
2021/12/24 09:36:29;;;;;;;9.13;4.47;;;;;;;-141.50;100.00;63355.56;4877545;29;20395;-78
2021/12/24 09:38:59;;;;;;;7.55;4.50;;;;;;;-141.50;100.00;63355.56;4877827;29;20077;-79
2021/12/24 09:41:25;;;;;;;6.30;3.95;;;;;;;-141.50;100.00;63355.56;4875970;29;20398;-81
2021/12/24 09:43:52;;;;;;;7.25;4.30;;;;;;;-141.50;100.00;63355.56;4879296;29;20490;-79
2021/12/24 09:46:19;;;;;;;7.20;4.20;;;;;;;-141.50;100.00;63355.56;4861743;29;20053;-79
2021/12/24 09:48:45;;;;;;;6.57;4.18;;;;;;;-141.50;100.00;63355.56;4876498;29;20418;-79
2021/12/24 09:51:12;;;;;;;7.45;4.40;;;;;;;-141.50;100.00;63355.56;4876819;29;20053;-78
2021/12/24 09:53:39;;;;;;;6.57;4.55;;;;;;;-141.50;100.00;63355.56;4878182;29;20085;-79
2021/12/24 09:56:06;;;;;;;8.40;4.00;;;;;;;-141.50;100.00;63355.56;4876623;29;20072;-79
2021/12/24 09:58:33;;;;;;;6.28;3.92;;;;;;;-141.50;100.00;63355.56;4877375;29;20049;-78
2021/12/24 10:01:00;;;;;;;9.15;4.55;;;;;;;-141.50;100.00;63355.56;4876816;29;20057;-79
2021/12/24 10:03:39;;;;;;;6.70;4.18;;;;;;;-141.50;100.00;63355.56;4876750;29;20057;-79
2021/12/24 10:06:05;;;;;;;16.08;3.72;;;;;;;-141.50;100.00;63355.56;4874795;29;20144;-78
2021/12/24 10:08:32;;;;;;;6.88;3.90;;;;;;;-141.50;100.00;63355.56;4859252;29;20462;-79
2021/12/24 10:11:02;;;;;;;10.02;3.83;;;;;;;-141.50;100.00;63355.56;4875295;29;20180;-80
2021/12/24 10:13:34;;;;;;;6.93;3.97;;;;;;;-141.50;100.00;63355.56;4858135;29;20089;-80
2021/12/24 10:16:18;;;;;;;7.85;3.72;;;;;;;-141.50;100.00;63355.56;4877139;29;20494;-79
2021/12/24 10:18:51;;;;;;;8.90;3.28;;;;;;;-141.50;100.00;63355.56;4877022;29;20053;-80
2021/12/24 10:21:18;;;;;;;6.95;3.38;;;;;;;-141.50;100.00;63355.56;4877389;29;20509;-79
2021/12/24 10:23:45;;;;;;;4.93;3.30;;;;;;;-141.50;100.00;63355.56;4884861;29;20056;-79
2021/12/24 10:26:29;;;;;;;7.43;3.35;;;;;;;-141.50;100.00;63355.56;4895363;29;20053;-79
2021/12/24 10:28:58;;;;;;;5.78;3.28;;;;;;;-141.50;100.00;63355.56;4880579;29;20053;-79
2021/12/24 10:31:31;;;;;;;9.93;3.63;;;;;;;-141.50;100.00;63355.56;4881527;29;20105;-80
2021/12/24 10:34:14;;;;;;;6.72;3.47;;;;;;;-141.50;100.00;63355.56;4882192;29;20116;-79
2021/12/24 10:36:54;;;;;;;5.68;3.40;;;;;;;-141.50;100.00;63355.56;4882668;29;20454;-79
2021/12/24 10:39:26;;;;;;;7.05;3.70;;;;;;;-141.50;100.00;63355.56;4886358;29;20081;-79
2021/12/24 10:41:55;;;;;;;6.38;3.05;;;;;;;-141.50;100.00;63355.56;4890332;29;20053;-78
2021/12/24 10:44:25;;;;;;;5.43;2.72;;;;;;;-141.50;100.00;63355.56;4889618;29;20076;-80
2021/12/24 10:47:09;;;;;;;8.07;3.42;;;;;;;-141.50;100.00;63355.56;4887949;29;20322;-78
2021/12/24 10:52:16;;;;;;;5.88;3.17;;;;;;;-141.50;100.00;63355.56;4891386;29;20068;-79
2021/12/24 10:54:58;;;;;;;5.28;3.00;;;;;;;-141.50;100.00;63355.56;4894758;29;20056;-78
2021/12/24 10:57:31;;;;;;;6.03;2.92;;;;;;;-141.50;100.00;63355.56;4889177;29;20057;-78
2021/12/24 11:00:15;;;;;;;6.47;2.95;;;;;;;-141.50;100.00;63355.56;4865422;29;20049;-80
2021/12/24 11:02:42;;;;;;;4.55;2.53;;;;;;;-141.50;100.00;63355.56;4879716;29;20072;-80
2021/12/24 11:05:38;;;;;;;5.80;2.60;;;;;;;-141.50;100.00;63355.56;4863760;29;20081;-78
2021/12/24 11:08:11;;;;;;;6.00;2.85;;;;;;;-141.50;100.00;63355.56;4878673;29;20053;-79
2021/12/24 11:10:44;;;;;;;5.38;2.60;;;;;;;-141.50;100.00;63355.56;4860535;29;20117;-79
2021/12/24 11:13:28;;;;;;;4.38;2.63;;;;;;;-141.50;100.00;63355.56;4880016;29;20052;-79
2021/12/24 11:15:55;;;;;;;5.32;2.55;;;;;;;-141.50;100.00;63355.56;4878490;29;20069;-79
2021/12/24 11:18:27;;;;;;;6.00;2.60;;;;;;;-141.50;100.00;63355.56;4880357;29;20145;-79
2021/12/24 11:21:13;;;;;;;5.43;2.92;;;;;;;-141.50;100.00;63355.56;4879175;29;20492;-79
2021/12/24 11:23:41;;;;;;;4.82;2.50;;;;;;;-141.50;100.00;63355.56;4879449;29;20100;-78
2021/12/24 11:26:11;;;;;;;4.85;2.95;;;;;;;-141.50;100.00;63355.56;4878287;29;20184;-78
2021/12/24 11:28:38;;;;;;;4.72;2.78;;;;;;;-141.50;100.00;63355.56;4878449;29;20093;-79
2021/12/24 11:31:10;;;;;;;6.38;3.22;;;;;;;-141.50;100.00;63355.56;4879706;29;20068;-78
2021/12/24 11:33:39;;;;;;;7.30;3.20;;;;;;;-141.50;100.00;63355.56;4879136;29;20063;-79
2021/12/24 11:36:07;;;;;;;7.55;3.00;;;;;;;-141.50;100.00;63355.56;4874575;29;20104;-78
2021/12/24 11:38:37;;;;;;;6.10;3.42;;;;;;;-141.50;100.00;63355.56;4874768;29;20612;-78
2021/12/24 11:41:06;;;;;;;6.85;3.25;;;;;;;-141.50;100.00;63355.56;4876206;29;20060;-78
2021/12/24 11:43:36;;;;;;;6.90;3.50;;;;;;;-141.50;100.00;63355.56;4862749;29;20057;-79
2021/12/24 11:46:06;;;;;;;5.80;3.05;;;;;;;-141.50;100.00;63355.56;4880144;29;20053;-79
2021/12/24 11:48:33;;;;;;;5.60;3.25;;;;;;;-141.50;100.00;63355.56;4879416;29;20093;-80
2021/12/24 11:51:08;;;;;;;5.85;3.25;;;;;;;-141.50;100.00;63355.56;4878546;29;20072;-79
2021/12/24 11:53:36;;;;;;;6.80;3.25;;;;;;;-141.50;100.00;63355.56;4901768;29;20089;-78
2021/12/24 11:56:09;;;;;;;6.00;3.00;;;;;;;-141.50;100.00;63355.56;4899070;29;20317;-78
2021/12/24 11:58:45;;;;;;;8.63;3.10;;;;;;;-141.50;100.00;63355.56;4881813;29;20204;-79
2021/12/24 12:01:14;;;;;;;7.35;3.30;;;;;;;-141.50;100.00;63355.56;4877948;29;20058;-79
2021/12/24 12:03:53;;;;;;;6.13;3.47;;;;;;;-141.50;100.00;63355.56;4875526;29;20057;-78
2021/12/24 12:06:22;;;;;;;7.13;3.90;;;;;;;-141.50;100.00;63355.56;4877500;29;20239;-78
2021/12/24 12:08:54;;;;;;;7.38;3.90;;;;;;;-141.50;100.00;63355.56;4875561;29;20063;-78
2021/12/24 12:11:24;;;;;;;5.78;3.35;;;;;;;-141.50;100.00;63355.56;4876448;29;20198;-79
2021/12/24 12:14:01;;;;;;;9.27;4.22;;;;;;;-141.50;100.00;63355.56;4876468;29;20161;-78
2021/12/24 12:16:42;;;;;;;8.30;4.28;;;;;;;-141.50;100.00;63355.56;4876158;29;20409;-78
2021/12/24 12:19:27;;;;;;;8.77;4.05;;;;;;;-141.50;100.00;63355.56;4874712;29;20081;-79
2021/12/24 12:22:57;;;;;;;7.30;4.00;;;;;;;-141.50;100.00;63355.56;4877848;29;20061;-78
2021/12/24 12:25:10;;;;;;;6.68;4.00;;;;;;;-141.50;100.00;63355.56;4879110;29;20057;-77
2021/12/24 12:27:53;;;;;;;10.57;4.40;;;;;;;-141.50;100.00;63355.56;4879456;29;20092;-80
2021/12/24 12:30:20;;;;;;;8.63;4.20;;;;;;;-141.50;100.00;63355.56;4878112;29;20095;-77
2021/12/24 12:32:48;;;;;;;8.95;4.75;;;;;;;-141.50;100.00;63355.56;4876690;29;20095;-77
2021/12/24 12:35:16;;;;;;;10.77;4.85;;;;;;;-141.50;100.00;63355.56;4880040;29;20113;-77
2021/12/24 12:37:51;;;;;;;10.65;3.92;;;;;;;-141.50;100.00;63355.56;4882508;29;20053;-77
2021/12/24 12:40:18;;;;;;;8.73;4.20;;;;;;;-141.50;100.00;63355.56;4882328;29;20056;-76
2021/12/24 12:42:58;;;;;;;7.80;4.30;;;;;;;-141.50;100.00;63355.56;4883016;29;20092;-78
2021/12/24 12:45:35;;;;;;;10.98;4.38;;;;;;;-141.50;100.00;63355.56;4879747;29;20057;-79
2021/12/24 12:48:06;;;;;;;11.55;4.60;;;;;;;-141.50;100.00;63355.56;4878634;29;20053;-77
2021/12/24 12:50:34;;;;;;;9.60;4.38;;;;;;;-141.50;100.00;63355.56;4882845;29;20064;-78
2021/12/24 12:53:39;;;;;;;10.43;4.20;;;;;;;-141.50;100.00;63355.56;4883963;29;20053;-78
2021/12/24 12:56:09;;;;;;;8.15;4.45;;;;;;;-141.50;100.00;63355.56;4883479;29;20053;-78